createdAt,value
2018-04-30T00:01:49.534Z,3.93
2018-04-30T00:04:17.086Z,4.40
2018-04-30T00:06:44.526Z,3.03
2018-04-30T00:09:12.000Z,3.60
2018-04-30T00:11:39.444Z,3.43
2018-04-30T00:14:07.090Z,3.20
2018-04-30T00:16:34.548Z,3.20
2018-04-30T00:19:02.007Z,3.20
2018-04-30T00:21:29.462Z,3.30
2018-04-30T00:23:56.922Z,3.50
2018-04-30T00:26:24.379Z,3.17
2018-04-30T00:28:51.916Z,2.50
2018-04-30T00:31:19.425Z,2.47
2018-04-30T00:33:46.876Z,3.43
2018-04-30T00:36:14.344Z,3.00
2018-04-30T00:38:41.798Z,2.63
2018-04-30T00:41:09.256Z,2.37
2018-04-30T00:43:36.710Z,2.67
2018-04-30T00:46:04.150Z,2.70
2018-04-30T00:48:31.594Z,2.17
2018-04-30T00:50:59.053Z,2.80
2018-04-30T00:53:26.514Z,2.37
2018-04-30T00:55:53.999Z,2.50
2018-04-30T00:58:21.455Z,2.03
2018-04-30T01:00:48.898Z,2.40
2018-04-30T01:03:16.348Z,2.20
2018-04-30T01:05:43.791Z,2.33
2018-04-30T01:08:11.230Z,2.30
2018-04-30T01:10:38.661Z,1.97
2018-04-30T01:13:06.098Z,1.80
2018-04-30T01:15:33.536Z,2.10
2018-04-30T01:18:00.961Z,1.90
2018-04-30T01:20:28.411Z,2.27
2018-04-30T01:22:55.854Z,1.80
2018-04-30T01:25:23.307Z,2.43
2018-04-30T01:27:50.781Z,1.73
2018-04-30T01:30:18.205Z,1.37
2018-04-30T01:32:45.750Z,1.57
2018-04-30T01:35:13.189Z,1.60
2018-04-30T01:37:40.644Z,1.73
2018-04-30T01:40:08.081Z,1.27
2018-04-30T01:42:35.561Z,1.30
2018-04-30T01:45:03.035Z,2.00
2018-04-30T01:47:30.483Z,1.50
2018-04-30T01:49:57.951Z,1.30
2018-04-30T01:52:25.388Z,1.60
2018-04-30T01:54:52.924Z,1.47
2018-04-30T01:57:20.409Z,1.30
2018-04-30T01:59:48.762Z,1.67
2018-04-30T02:02:16.201Z,1.30
2018-04-30T02:04:43.662Z,1.10
2018-04-30T02:07:11.093Z,1.17
2018-04-30T02:09:38.635Z,1.23
2018-04-30T02:12:06.077Z,1.30
2018-04-30T02:14:33.622Z,1.00
2018-04-30T02:17:01.183Z,1.10
2018-04-30T02:19:28.762Z,1.20
2018-04-30T02:21:56.225Z,1.03
2018-04-30T02:24:23.675Z,1.00
2018-04-30T02:26:51.125Z,1.60
2018-04-30T02:29:18.556Z,0.80
2018-04-30T02:31:46.070Z,0.73
2018-04-30T02:34:13.606Z,0.90
2018-04-30T02:36:41.052Z,1.10
2018-04-30T02:39:08.495Z,1.00
2018-04-30T02:41:35.950Z,1.00
2018-04-30T02:44:03.411Z,0.70
2018-04-30T02:46:30.864Z,0.77
2018-04-30T02:48:58.355Z,0.80
2018-04-30T02:51:25.806Z,0.90
2018-04-30T02:53:53.255Z,0.80
2018-04-30T02:56:20.793Z,1.10
2018-04-30T02:58:48.243Z,0.90
2018-04-30T03:01:15.686Z,0.60
2018-04-30T03:03:43.124Z,0.80
2018-04-30T03:06:10.552Z,0.80
2018-04-30T03:08:38.002Z,0.70
2018-04-30T03:11:05.501Z,0.90
2018-04-30T03:13:32.946Z,0.70
2018-04-30T03:16:00.438Z,0.90
2018-04-30T03:18:27.917Z,0.83
2018-04-30T03:20:55.358Z,0.70
2018-04-30T03:23:22.799Z,0.60
2018-04-30T03:25:50.243Z,0.60
2018-04-30T03:28:17.710Z,0.70
2018-04-30T03:30:45.143Z,1.10
2018-04-30T03:33:12.614Z,0.80
2018-04-30T03:35:40.051Z,1.00
2018-04-30T03:38:07.573Z,0.83
2018-04-30T03:40:35.025Z,0.90
2018-04-30T03:43:02.497Z,0.90
2018-04-30T03:45:29.930Z,1.30
2018-04-30T03:47:57.363Z,0.83
2018-04-30T03:50:24.802Z,1.07
2018-04-30T03:52:52.260Z,0.80
2018-04-30T03:55:19.705Z,0.80
2018-04-30T03:57:47.137Z,0.90
2018-04-30T04:00:26.403Z,0.80
2018-04-30T04:03:05.570Z,0.83
2018-04-30T04:05:44.789Z,1.30
2018-04-30T04:08:12.217Z,0.90
2018-04-30T04:10:39.657Z,1.00
2018-04-30T04:13:07.118Z,0.90
2018-04-30T04:15:34.554Z,0.90
2018-04-30T04:18:01.986Z,1.00
2018-04-30T04:20:29.422Z,1.20
2018-04-30T04:22:56.878Z,1.10
2018-04-30T04:25:24.378Z,0.80
2018-04-30T04:27:51.838Z,0.90
2018-04-30T04:30:19.282Z,1.10
2018-04-30T04:32:46.737Z,1.10
2018-04-30T04:35:14.199Z,1.17
2018-04-30T04:37:41.654Z,1.00
2018-04-30T04:40:09.097Z,0.93
2018-04-30T04:42:36.573Z,1.00
2018-04-30T04:45:04.038Z,1.07
2018-04-30T04:47:31.519Z,0.87
2018-04-30T04:49:58.983Z,1.00
2018-04-30T04:52:26.432Z,1.60
2018-04-30T04:54:53.909Z,0.73
2018-04-30T04:57:21.377Z,1.00
2018-04-30T04:59:48.952Z,0.90
2018-04-30T05:02:16.418Z,1.10
2018-04-30T05:04:43.873Z,0.90
2018-04-30T05:07:11.331Z,1.07
2018-04-30T05:09:38.785Z,1.30
2018-04-30T05:12:06.276Z,1.07
2018-04-30T05:14:33.749Z,0.90
2018-04-30T05:17:01.181Z,1.10
2018-04-30T05:19:28.625Z,0.90
2018-04-30T05:21:56.093Z,0.87
2018-04-30T05:24:23.540Z,1.20
2018-04-30T05:26:51.041Z,1.00
2018-04-30T05:29:18.557Z,0.90
2018-04-30T05:31:45.998Z,0.93
2018-04-30T05:34:13.437Z,0.90
2018-04-30T05:36:40.960Z,1.17
2018-04-30T05:39:08.412Z,0.70
2018-04-30T05:41:35.873Z,0.97
2018-04-30T05:44:03.344Z,1.10
2018-04-30T05:46:30.792Z,0.80
2018-04-30T05:48:58.333Z,0.80
2018-04-30T05:51:25.787Z,0.90
2018-04-30T05:53:53.239Z,0.93
2018-04-30T05:56:20.677Z,1.33
2018-04-30T05:58:48.124Z,1.03
2018-04-30T06:01:15.617Z,1.27
2018-04-30T06:03:43.055Z,1.17
2018-04-30T06:06:10.513Z,1.00
2018-04-30T06:08:37.946Z,0.93
2018-04-30T06:11:05.415Z,1.33
2018-04-30T06:13:32.886Z,1.20
2018-04-30T06:16:00.341Z,1.00
2018-04-30T06:18:27.773Z,1.10
2018-04-30T06:20:56.059Z,1.10
2018-04-30T06:23:23.538Z,1.33
2018-04-30T06:25:50.975Z,1.00
2018-04-30T06:28:18.423Z,1.20
2018-04-30T06:30:45.870Z,1.17
2018-04-30T06:33:13.305Z,1.10
2018-04-30T06:35:40.759Z,1.40
2018-04-30T06:38:08.257Z,1.30
2018-04-30T06:40:35.705Z,1.63
2018-04-30T06:43:03.177Z,1.53
2018-04-30T06:45:30.638Z,1.30
2018-04-30T06:47:58.086Z,1.50
2018-04-30T06:50:25.518Z,1.27
2018-04-30T06:52:53.026Z,1.43
2018-04-30T06:55:20.482Z,1.20
2018-04-30T06:57:47.935Z,0.90
2018-04-30T07:00:15.425Z,1.00
2018-04-30T07:02:42.846Z,0.80
2018-04-30T07:05:10.285Z,0.83
2018-04-30T07:07:37.742Z,0.60
2018-04-30T07:10:05.189Z,0.60
2018-04-30T07:12:32.635Z,0.70
2018-04-30T07:15:00.265Z,0.70
2018-04-30T07:17:27.699Z,0.80
2018-04-30T07:19:55.155Z,0.73
2018-04-30T07:22:22.594Z,0.70
2018-04-30T07:24:50.037Z,0.70
2018-04-30T07:27:17.473Z,0.60
2018-04-30T07:29:44.919Z,0.60
2018-04-30T07:32:12.359Z,0.70
2018-04-30T07:34:39.824Z,0.80
2018-04-30T07:37:07.270Z,0.60
2018-04-30T07:39:34.749Z,0.70
2018-04-30T07:42:02.297Z,0.60
2018-04-30T07:44:29.743Z,0.70
2018-04-30T07:46:57.195Z,0.70
2018-04-30T07:49:24.643Z,0.80
2018-04-30T07:51:52.128Z,0.50
2018-04-30T07:54:19.610Z,0.70
2018-04-30T07:56:47.114Z,0.60
2018-04-30T07:59:14.719Z,0.70
2018-04-30T08:01:42.165Z,0.80
2018-04-30T08:04:09.618Z,0.70
2018-04-30T08:07:00.672Z,0.80
2018-04-30T08:09:28.134Z,0.70
2018-04-30T08:11:55.655Z,0.60
2018-04-30T08:14:23.082Z,0.60
2018-04-30T08:16:50.661Z,0.80
2018-04-30T08:19:18.132Z,0.60
2018-04-30T08:21:45.582Z,0.70
2018-04-30T08:24:13.075Z,0.60
2018-04-30T08:26:40.523Z,0.70
2018-04-30T08:29:08.055Z,0.63
2018-04-30T08:31:35.517Z,0.70
2018-04-30T08:34:03.030Z,0.80
2018-04-30T08:36:30.481Z,0.80
2018-04-30T08:38:57.956Z,0.67
2018-04-30T08:41:25.448Z,0.70
2018-04-30T08:43:52.934Z,0.73
2018-04-30T08:46:20.370Z,0.70
2018-04-30T08:48:48.615Z,0.70
2018-04-30T08:51:16.096Z,1.80
2018-04-30T08:53:43.589Z,0.90
2018-04-30T08:56:11.017Z,0.63
2018-04-30T08:58:38.588Z,1.00
2018-04-30T09:01:06.044Z,0.63
2018-04-30T09:03:33.577Z,0.70
2018-04-30T09:06:01.414Z,0.70
2018-04-30T09:08:28.882Z,0.50
2018-04-30T09:10:56.318Z,0.70
2018-04-30T09:13:23.740Z,0.70
2018-04-30T09:15:51.349Z,0.70
2018-04-30T09:18:18.800Z,1.10
2018-04-30T09:20:46.293Z,0.73
2018-04-30T09:23:13.749Z,0.73
2018-04-30T09:25:41.207Z,1.13
2018-04-30T09:28:08.702Z,0.60
2018-04-30T09:30:36.111Z,0.70
2018-04-30T09:33:03.562Z,0.50
2018-04-30T09:35:31.024Z,0.60
2018-04-30T09:37:58.478Z,0.60
2018-04-30T09:40:25.933Z,0.70
2018-04-30T09:42:53.389Z,1.07
2018-04-30T09:45:20.843Z,0.60
2018-04-30T09:47:48.326Z,0.73
2018-04-30T09:50:15.915Z,0.70
2018-04-30T09:52:43.383Z,0.50
2018-04-30T09:55:10.840Z,0.80
2018-04-30T09:57:38.341Z,0.70
2018-04-30T10:00:05.783Z,0.70
2018-04-30T10:02:33.241Z,0.73
2018-04-30T10:05:00.704Z,0.80
2018-04-30T10:07:28.272Z,0.60
2018-04-30T10:09:55.713Z,0.70
2018-04-30T10:12:23.190Z,0.80
2018-04-30T10:14:50.634Z,0.70
2018-04-30T10:17:18.099Z,0.70
2018-04-30T10:19:45.556Z,0.67
2018-04-30T10:22:13.040Z,0.60
2018-04-30T10:24:40.483Z,0.70
2018-04-30T10:27:07.951Z,0.73
2018-04-30T10:29:35.398Z,0.90
2018-04-30T10:32:02.964Z,0.90
2018-04-30T10:34:30.393Z,0.60
2018-04-30T10:36:57.885Z,0.60
2018-04-30T10:39:25.407Z,0.70
2018-04-30T10:41:52.869Z,0.70
2018-04-30T10:44:20.350Z,0.60
2018-04-30T10:46:47.818Z,0.70
2018-04-30T10:49:15.368Z,0.70
2018-04-30T10:51:42.931Z,1.43
2018-04-30T10:54:10.337Z,0.73
2018-04-30T10:56:37.838Z,0.70
2018-04-30T10:59:05.291Z,0.97
2018-04-30T11:01:32.754Z,0.67
2018-04-30T11:04:00.206Z,0.70
2018-04-30T11:06:27.660Z,0.77
2018-04-30T11:08:55.130Z,0.63
2018-04-30T11:11:22.605Z,0.80
2018-04-30T11:13:50.139Z,1.40
2018-04-30T11:16:17.584Z,0.73
2018-04-30T11:18:45.068Z,0.70
2018-04-30T11:21:12.594Z,0.90
2018-04-30T11:23:40.054Z,0.70
2018-04-30T11:26:07.502Z,0.70
2018-04-30T11:28:34.970Z,0.70
2018-04-30T11:31:02.446Z,0.70
2018-04-30T11:33:29.908Z,0.93
2018-04-30T11:35:57.361Z,0.60
2018-04-30T11:38:24.801Z,0.97
2018-04-30T11:40:52.309Z,1.27
2018-04-30T11:43:19.772Z,0.70
2018-04-30T11:45:47.233Z,0.80
2018-04-30T11:48:14.707Z,0.83
2018-04-30T11:50:42.166Z,0.80
2018-04-30T11:53:09.644Z,1.00
2018-04-30T11:55:37.554Z,0.73
2018-04-30T11:58:04.998Z,0.67
2018-04-30T12:00:32.611Z,0.70
2018-04-30T12:03:00.235Z,0.80
2018-04-30T12:05:27.766Z,0.77
2018-04-30T12:07:55.249Z,0.80
2018-04-30T12:10:22.710Z,0.80
2018-04-30T12:12:50.179Z,1.00
2018-04-30T12:15:17.645Z,0.80
2018-04-30T12:17:45.155Z,0.70
2018-04-30T12:20:12.706Z,0.80
2018-04-30T12:22:46.672Z,0.70
2018-04-30T12:25:14.514Z,0.60
2018-04-30T12:27:42.046Z,0.60
2018-04-30T12:30:09.581Z,0.87
2018-04-30T12:32:37.114Z,1.00
2018-04-30T12:35:04.712Z,0.80
2018-04-30T12:37:32.156Z,0.87
2018-04-30T12:39:59.613Z,0.90
2018-04-30T12:42:27.090Z,0.80
2018-04-30T12:44:54.538Z,0.80
2018-04-30T12:47:21.993Z,0.90
2018-04-30T12:49:49.501Z,1.07
2018-04-30T12:52:16.950Z,0.97
2018-04-30T12:54:44.452Z,0.60
2018-04-30T12:57:11.938Z,0.67
2018-04-30T12:59:39.409Z,0.90
2018-04-30T13:02:06.955Z,0.80
2018-04-30T13:04:34.429Z,0.67
2018-04-30T13:07:01.885Z,0.90
2018-04-30T13:09:29.350Z,0.70
2018-04-30T13:11:56.919Z,0.70
2018-04-30T13:14:24.433Z,1.90
2018-04-30T13:16:51.894Z,0.80
2018-04-30T13:19:19.337Z,0.70
2018-04-30T13:21:46.785Z,0.70
2018-04-30T13:24:14.249Z,0.77
2018-04-30T13:26:41.694Z,0.60
2018-04-30T13:29:09.165Z,0.80
2018-04-30T13:31:36.669Z,0.70
2018-04-30T13:34:04.140Z,0.80
2018-04-30T13:36:31.577Z,0.80
2018-04-30T13:38:59.029Z,0.87
2018-04-30T13:41:26.491Z,0.67
2018-04-30T13:43:54.209Z,0.77
2018-04-30T13:46:21.758Z,0.80
2018-04-30T13:48:49.222Z,0.97
2018-04-30T13:51:16.693Z,0.70
2018-04-30T13:53:44.175Z,0.70
2018-04-30T13:56:11.622Z,0.70
2018-04-30T13:58:39.063Z,0.70
2018-04-30T14:01:06.745Z,0.87
2018-04-30T14:03:34.202Z,0.73
2018-04-30T14:06:01.665Z,1.00
2018-04-30T14:08:29.111Z,0.80
2018-04-30T14:10:56.604Z,0.80
2018-04-30T14:13:24.074Z,0.67
2018-04-30T14:15:51.551Z,0.70
2018-04-30T14:18:19.018Z,2.73
2018-04-30T14:20:46.606Z,0.67
2018-04-30T14:23:14.036Z,0.70
2018-04-30T14:25:41.619Z,0.80
2018-04-30T14:28:09.056Z,0.60
2018-04-30T14:30:39.644Z,0.70
2018-04-30T14:33:07.137Z,0.60
2018-04-30T14:35:34.596Z,0.70
2018-04-30T14:38:08.342Z,0.70
2018-04-30T14:40:35.934Z,0.70
2018-04-30T14:43:03.454Z,0.80
2018-04-30T14:45:31.004Z,0.70
2018-04-30T14:47:58.483Z,0.80
2018-04-30T14:50:25.934Z,0.70
2018-04-30T14:52:53.394Z,0.70
2018-04-30T14:55:20.850Z,1.70
2018-04-30T14:57:48.319Z,0.70
2018-04-30T15:00:15.782Z,0.70
2018-04-30T15:02:43.207Z,0.70
2018-04-30T15:05:10.800Z,0.70
2018-04-30T15:07:38.238Z,0.77
2018-04-30T15:10:05.688Z,1.07
2018-04-30T15:12:33.271Z,1.27
2018-04-30T15:15:01.688Z,0.87
2018-04-30T15:17:29.142Z,0.70
2018-04-30T15:19:56.604Z,0.87
2018-04-30T15:22:24.053Z,1.00
2018-04-30T15:24:52.481Z,0.80
2018-04-30T15:27:19.915Z,0.70
2018-04-30T15:29:47.361Z,0.90
2018-04-30T15:32:15.053Z,0.90
2018-04-30T15:34:50.300Z,0.90
2018-04-30T15:37:17.741Z,1.10
2018-04-30T15:39:45.411Z,1.10
2018-04-30T15:42:13.108Z,1.00
2018-04-30T15:44:40.400Z,0.90
2018-04-30T15:47:08.635Z,0.93
2018-04-30T15:49:36.137Z,1.10
2018-04-30T15:52:04.839Z,1.00
2018-04-30T15:54:32.367Z,0.87
2018-04-30T15:56:59.866Z,1.30
2018-04-30T15:59:27.370Z,0.90
2018-04-30T16:01:54.866Z,0.90
2018-04-30T16:04:22.308Z,0.93
2018-04-30T16:06:49.780Z,0.90
2018-04-30T16:09:17.209Z,1.30
2018-04-30T16:11:44.695Z,0.90
2018-04-30T16:14:12.168Z,1.20
2018-04-30T16:16:39.608Z,1.03
2018-04-30T16:19:07.074Z,1.30
2018-04-30T16:21:34.519Z,1.03
2018-04-30T16:24:01.978Z,0.80
2018-04-30T16:26:29.409Z,0.93
2018-04-30T16:28:57.679Z,0.90
2018-04-30T16:31:25.117Z,1.20
2018-04-30T16:33:52.562Z,1.20
2018-04-30T16:36:19.998Z,1.00
2018-04-30T16:38:47.435Z,1.13
2018-04-30T16:41:14.913Z,0.90
2018-04-30T16:43:42.360Z,0.90
2018-04-30T16:46:09.813Z,0.87
2018-04-30T16:48:37.290Z,1.40
2018-04-30T16:51:04.861Z,0.90
2018-04-30T16:53:32.463Z,1.10
2018-04-30T16:55:59.914Z,1.00
2018-04-30T16:58:27.484Z,0.80
2018-04-30T17:00:54.913Z,1.03
2018-04-30T17:03:22.337Z,1.20
2018-04-30T17:05:49.778Z,1.00
2018-04-30T17:08:17.230Z,0.90
2018-04-30T17:10:44.673Z,1.00
2018-04-30T17:13:12.269Z,1.13
2018-04-30T17:15:39.854Z,1.43
2018-04-30T17:18:07.323Z,1.10
2018-04-30T17:20:34.752Z,1.20
2018-04-30T17:23:02.193Z,0.93
2018-04-30T17:25:29.791Z,1.17
2018-04-30T17:27:57.298Z,1.00
2018-04-30T17:30:24.855Z,0.90
2018-04-30T17:32:56.177Z,0.90
2018-04-30T17:35:23.676Z,1.20
2018-04-30T17:37:51.138Z,1.00
2018-04-30T17:40:18.697Z,1.10
2018-04-30T17:42:46.137Z,0.80
2018-04-30T17:45:13.590Z,1.07
2018-04-30T17:47:41.072Z,0.80
2018-04-30T17:50:08.510Z,1.07
2018-04-30T17:52:35.983Z,0.80
2018-04-30T17:55:03.418Z,1.00
2018-04-30T17:57:30.914Z,1.00
2018-04-30T17:59:58.423Z,0.80
2018-04-30T18:02:25.817Z,1.00
2018-04-30T18:04:53.269Z,0.97
2018-04-30T18:07:20.710Z,1.10
2018-04-30T18:09:48.186Z,0.90
2018-04-30T18:12:15.644Z,1.17
2018-04-30T18:14:43.153Z,1.10
2018-04-30T18:17:10.660Z,0.90
2018-04-30T18:19:38.132Z,0.93
2018-04-30T18:22:05.573Z,1.20
2018-04-30T18:24:33.128Z,1.00
2018-04-30T18:27:00.564Z,0.73
2018-04-30T18:29:28.009Z,0.97
2018-04-30T18:31:55.493Z,1.10
2018-04-30T18:34:22.946Z,1.30
2018-04-30T18:36:50.395Z,1.10
2018-04-30T18:39:17.878Z,1.23
2018-04-30T18:41:45.322Z,1.10
2018-04-30T18:44:12.764Z,1.10
2018-04-30T18:46:40.227Z,1.03
2018-04-30T18:49:07.673Z,1.13
2018-04-30T18:51:35.557Z,1.17
2018-04-30T18:54:03.016Z,1.20
2018-04-30T18:56:30.462Z,1.40
2018-04-30T18:58:57.917Z,1.13
2018-04-30T19:01:25.364Z,1.20
2018-04-30T19:03:52.815Z,1.30
2018-04-30T19:06:20.276Z,1.20
2018-04-30T19:08:47.772Z,0.90
2018-04-30T19:11:15.222Z,7.90
2018-04-30T19:13:42.658Z,1.10
2018-04-30T19:16:10.139Z,1.73
2018-04-30T19:18:37.573Z,1.30
2018-04-30T19:21:05.042Z,1.10
2018-04-30T19:23:32.512Z,1.40
2018-04-30T19:25:59.952Z,1.20
2018-04-30T19:28:27.414Z,1.20
2018-04-30T19:30:54.870Z,1.13
2018-04-30T19:33:22.389Z,1.10
2018-04-30T19:35:49.876Z,1.30
2018-04-30T19:38:17.303Z,1.50
2018-04-30T19:40:44.949Z,1.27
2018-04-30T19:43:12.393Z,1.50
2018-04-30T19:50:30.226Z,1.03
2018-04-30T19:52:57.736Z,1.53
2018-04-30T19:55:25.244Z,1.10
2018-04-30T19:57:52.797Z,1.00
2018-04-30T20:00:22.157Z,1.07
2018-04-30T20:02:49.624Z,1.47
2018-04-30T20:05:17.189Z,1.50
2018-04-30T20:07:44.643Z,1.00
2018-04-30T20:10:12.226Z,1.00
2018-04-30T20:12:39.701Z,1.10
2018-04-30T20:15:07.137Z,1.03
2018-04-30T20:17:34.650Z,1.10
2018-04-30T20:20:02.138Z,1.10
2018-04-30T20:22:29.625Z,1.03
2018-04-30T20:24:57.055Z,1.20
2018-04-30T20:27:24.533Z,1.93
2018-04-30T20:29:52.037Z,1.03
2018-04-30T20:32:19.642Z,1.00
2018-04-30T20:34:47.496Z,0.97
2018-04-30T20:37:15.033Z,1.00
2018-04-30T20:39:42.509Z,1.20
2018-04-30T20:42:09.981Z,1.77
2018-04-30T20:44:37.445Z,1.87
2018-04-30T20:47:04.935Z,1.23
2018-04-30T20:49:32.515Z,1.53
2018-04-30T20:51:59.969Z,1.20
2018-04-30T20:54:27.469Z,1.73
2018-04-30T20:56:54.955Z,1.33
2018-04-30T20:59:22.519Z,1.27
2018-04-30T21:01:49.994Z,1.50
2018-04-30T21:04:17.479Z,0.90
2018-04-30T21:06:44.955Z,1.27
2018-04-30T21:09:13.530Z,1.20
2018-04-30T21:11:41.147Z,1.20
2018-04-30T21:14:08.880Z,1.00
2018-04-30T21:16:36.350Z,1.33
2018-04-30T21:19:03.873Z,1.20
2018-04-30T21:21:31.410Z,1.33
2018-04-30T21:23:59.032Z,1.00
2018-04-30T21:26:26.549Z,0.90
2018-04-30T21:28:54.014Z,1.10
2018-04-30T21:31:21.472Z,1.13
2018-04-30T21:33:48.982Z,1.10
2018-04-30T21:36:16.442Z,1.20
2018-04-30T21:38:44.001Z,1.10
2018-04-30T21:41:11.550Z,1.20
2018-04-30T21:43:38.998Z,1.00
2018-04-30T21:46:06.457Z,0.80
2018-04-30T21:48:34.799Z,1.00
2018-04-30T21:51:02.577Z,1.00
2018-04-30T21:53:30.031Z,1.00
2018-04-30T21:55:57.595Z,1.20
2018-04-30T21:58:25.081Z,1.20
2018-04-30T22:00:52.595Z,1.10
2018-04-30T22:03:20.048Z,1.27
2018-04-30T22:05:47.542Z,0.90
2018-04-30T22:08:15.008Z,1.20
2018-04-30T22:10:42.455Z,1.30
2018-04-30T22:13:09.932Z,1.73
2018-04-30T22:15:37.461Z,1.13
2018-04-30T22:18:04.930Z,0.97
2018-04-30T22:20:33.599Z,0.97
2018-04-30T22:23:01.220Z,0.80
2018-04-30T22:25:28.725Z,0.90
2018-04-30T22:27:56.871Z,1.10
2018-04-30T22:30:24.337Z,1.30
2018-04-30T22:32:51.797Z,0.90
2018-04-30T22:35:23.893Z,1.23
2018-04-30T22:37:59.392Z,1.00
2018-04-30T22:40:30.686Z,1.13
2018-04-30T22:42:59.935Z,0.87
2018-04-30T22:45:29.494Z,1.00
2018-04-30T22:47:56.941Z,0.97
2018-04-30T22:50:24.392Z,1.00
2018-04-30T22:52:51.858Z,1.20
2018-04-30T22:55:19.383Z,0.87
2018-04-30T22:57:46.837Z,1.00
2018-04-30T23:00:14.338Z,0.83
2018-04-30T23:02:41.797Z,0.93
2018-04-30T23:05:09.250Z,0.70
2018-04-30T23:07:36.764Z,1.00
2018-04-30T23:10:04.266Z,0.80
2018-04-30T23:12:31.720Z,0.80
2018-04-30T23:14:59.148Z,0.77
2018-04-30T23:17:26.589Z,0.90
2018-04-30T23:19:54.089Z,0.80
2018-04-30T23:22:21.559Z,0.80
2018-04-30T23:24:49.160Z,0.90
2018-04-30T23:27:16.675Z,0.80
2018-04-30T23:29:44.143Z,1.10
2018-04-30T23:32:11.590Z,0.90
2018-04-30T23:34:39.032Z,1.00
2018-04-30T23:37:06.494Z,0.80
2018-04-30T23:39:33.942Z,0.80
2018-04-30T23:42:01.394Z,0.90
2018-04-30T23:44:28.843Z,0.90
2018-04-30T23:46:56.308Z,0.90
2018-04-30T23:49:23.810Z,0.90
2018-04-30T23:51:51.250Z,0.90
2018-04-30T23:54:18.706Z,0.90
2018-04-30T23:56:46.245Z,0.87
2018-04-30T23:59:13.679Z,1.03
